sensor_id;sensor_type;location;lat;lon;timestamp;P1;durP1;ratioP1;P2;durP2;ratioP2
65358;SDS011;52491;45.900;6.346;2023-07-22T00:00:42;1.98;;;1.77;;
65358;SDS011;52491;45.900;6.346;2023-07-22T00:03:07;3.08;;;2.35;;
65358;SDS011;52491;45.900;6.346;2023-07-22T00:05:33;3.90;;;1.90;;
65358;SDS011;52491;45.900;6.346;2023-07-22T00:07:59;2.15;;;1.85;;
65358;SDS011;52491;45.900;6.346;2023-07-22T00:10:24;2.17;;;1.98;;
65358;SDS011;52491;45.900;6.346;2023-07-22T00:12:50;2.83;;;2.20;;
65358;SDS011;52491;45.900;6.346;2023-07-22T00:15:16;2.90;;;1.90;;
65358;SDS011;52491;45.900;6.346;2023-07-22T00:17:41;2.00;;;1.75;;
65358;SDS011;52491;45.900;6.346;2023-07-22T00:20:08;4.53;;;2.13;;
65358;SDS011;52491;45.900;6.346;2023-07-22T00:22:40;1.60;;;1.50;;
65358;SDS011;52491;45.900;6.346;2023-07-22T00:25:06;2.97;;;1.90;;
65358;SDS011;52491;45.900;6.346;2023-07-22T00:27:35;2.50;;;2.28;;
65358;SDS011;52491;45.900;6.346;2023-07-22T00:30:01;3.22;;;2.35;;
65358;SDS011;52491;45.900;6.346;2023-07-22T00:32:27;2.58;;;1.80;;
65358;SDS011;52491;45.900;6.346;2023-07-22T00:34:52;2.28;;;1.63;;
65358;SDS011;52491;45.900;6.346;2023-07-22T00:37:18;2.00;;;1.77;;
65358;SDS011;52491;45.900;6.346;2023-07-22T00:39:43;1.77;;;1.67;;
65358;SDS011;52491;45.900;6.346;2023-07-22T00:42:09;2.17;;;1.98;;
65358;SDS011;52491;45.900;6.346;2023-07-22T00:44:35;2.67;;;1.90;;
65358;SDS011;52491;45.900;6.346;2023-07-22T00:47:02;2.65;;;2.22;;
65358;SDS011;52491;45.900;6.346;2023-07-22T00:49:28;1.42;;;1.33;;
65358;SDS011;52491;45.900;6.346;2023-07-22T00:51:56;3.22;;;2.38;;
65358;SDS011;52491;45.900;6.346;2023-07-22T00:54:27;3.05;;;2.47;;
65358;SDS011;52491;45.900;6.346;2023-07-22T00:56:52;2.55;;;2.05;;
65358;SDS011;52491;45.900;6.346;2023-07-22T00:59:19;2.10;;;1.90;;
65358;SDS011;52491;45.900;6.346;2023-07-22T01:01:46;1.85;;;1.58;;
65358;SDS011;52491;45.900;6.346;2023-07-22T01:04:13;1.70;;;1.50;;
65358;SDS011;52491;45.900;6.346;2023-07-22T01:06:40;2.33;;;1.80;;
65358;SDS011;52491;45.900;6.346;2023-07-22T01:09:09;1.85;;;1.65;;
65358;SDS011;52491;45.900;6.346;2023-07-22T01:11:35;2.38;;;2.17;;
65358;SDS011;52491;45.900;6.346;2023-07-22T01:14:00;4.95;;;2.60;;
65358;SDS011;52491;45.900;6.346;2023-07-22T01:16:27;1.77;;;1.67;;
65358;SDS011;52491;45.900;6.346;2023-07-22T01:18:53;2.08;;;1.90;;
65358;SDS011;52491;45.900;6.346;2023-07-22T01:21:19;2.10;;;1.90;;
65358;SDS011;52491;45.900;6.346;2023-07-22T01:23:46;2.42;;;1.95;;
65358;SDS011;52491;45.900;6.346;2023-07-22T01:26:13;2.35;;;2.15;;
65358;SDS011;52491;45.900;6.346;2023-07-22T01:28:39;2.97;;;2.42;;
65358;SDS011;52491;45.900;6.346;2023-07-22T01:31:05;3.28;;;2.13;;
65358;SDS011;52491;45.900;6.346;2023-07-22T01:33:31;2.58;;;1.92;;
65358;SDS011;52491;45.900;6.346;2023-07-22T01:35:57;2.60;;;1.92;;
65358;SDS011;52491;45.900;6.346;2023-07-22T01:38:23;3.45;;;2.42;;
65358;SDS011;52491;45.900;6.346;2023-07-22T01:40:49;2.70;;;2.50;;
65358;SDS011;52491;45.900;6.346;2023-07-22T01:43:14;2.40;;;2.15;;
65358;SDS011;52491;45.900;6.346;2023-07-22T01:45:40;2.45;;;2.25;;
65358;SDS011;52491;45.900;6.346;2023-07-22T01:48:05;2.22;;;2.03;;
65358;SDS011;52491;45.900;6.346;2023-07-22T01:50:31;2.70;;;2.50;;
65358;SDS011;52491;45.900;6.346;2023-07-22T01:52:57;2.25;;;1.95;;
65358;SDS011;52491;45.900;6.346;2023-07-22T01:55:23;2.50;;;1.92;;
65358;SDS011;52491;45.900;6.346;2023-07-22T01:57:48;2.70;;;2.38;;
65358;SDS011;52491;45.900;6.346;2023-07-22T02:00:14;2.40;;;2.20;;
65358;SDS011;52491;45.900;6.346;2023-07-22T02:02:41;2.42;;;2.03;;
65358;SDS011;52491;45.900;6.346;2023-07-22T02:05:07;2.05;;;1.85;;
65358;SDS011;52491;45.900;6.346;2023-07-22T02:07:33;2.15;;;1.95;;
65358;SDS011;52491;45.900;6.346;2023-07-22T02:10:00;2.15;;;1.92;;
65358;SDS011;52491;45.900;6.346;2023-07-22T02:12:25;2.97;;;2.05;;
65358;SDS011;52491;45.900;6.346;2023-07-22T02:14:51;2.40;;;2.10;;
65358;SDS011;52491;45.900;6.346;2023-07-22T02:17:16;2.65;;;2.28;;
65358;SDS011;52491;45.900;6.346;2023-07-22T02:19:42;2.53;;;2.05;;
65358;SDS011;52491;45.900;6.346;2023-07-22T02:22:08;2.10;;;1.90;;
65358;SDS011;52491;45.900;6.346;2023-07-22T02:24:34;1.85;;;1.70;;
65358;SDS011;52491;45.900;6.346;2023-07-22T02:27:00;2.78;;;2.50;;
65358;SDS011;52491;45.900;6.346;2023-07-22T02:29:25;2.63;;;2.42;;
65358;SDS011;52491;45.900;6.346;2023-07-22T02:31:51;2.63;;;2.08;;
65358;SDS011;52491;45.900;6.346;2023-07-22T02:34:16;2.13;;;2.00;;
65358;SDS011;52491;45.900;6.346;2023-07-22T02:36:42;2.35;;;1.98;;
65358;SDS011;52491;45.900;6.346;2023-07-22T02:39:08;2.28;;;2.08;;
65358;SDS011;52491;45.900;6.346;2023-07-22T02:41:36;2.60;;;2.40;;
65358;SDS011;52491;45.900;6.346;2023-07-22T02:44:02;2.58;;;2.38;;
65358;SDS011;52491;45.900;6.346;2023-07-22T02:46:31;3.08;;;2.25;;
65358;SDS011;52491;45.900;6.346;2023-07-22T02:48:57;2.20;;;2.00;;
65358;SDS011;52491;45.900;6.346;2023-07-22T02:51:24;1.48;;;1.35;;
65358;SDS011;52491;45.900;6.346;2023-07-22T02:53:49;2.65;;;2.33;;
65358;SDS011;52491;45.900;6.346;2023-07-22T02:56:15;2.78;;;2.03;;
65358;SDS011;52491;45.900;6.346;2023-07-22T02:58:41;2.72;;;2.42;;
65358;SDS011;52491;45.900;6.346;2023-07-22T03:01:10;1.98;;;1.77;;
65358;SDS011;52491;45.900;6.346;2023-07-22T03:03:36;2.50;;;2.30;;
65358;SDS011;52491;45.900;6.346;2023-07-22T03:06:02;2.90;;;2.15;;
65358;SDS011;52491;45.900;6.346;2023-07-22T03:08:32;2.22;;;1.65;;
65358;SDS011;52491;45.900;6.346;2023-07-22T03:10:57;5.75;;;2.15;;
65358;SDS011;52491;45.900;6.346;2023-07-22T03:13:23;3.15;;;1.90;;
65358;SDS011;52491;45.900;6.346;2023-07-22T03:15:48;6.07;;;2.10;;
65358;SDS011;52491;45.900;6.346;2023-07-22T03:18:14;4.38;;;2.35;;
65358;SDS011;52491;45.900;6.346;2023-07-22T03:20:40;5.10;;;2.22;;
65358;SDS011;52491;45.900;6.346;2023-07-22T03:23:06;4.03;;;1.60;;
65358;SDS011;52491;45.900;6.346;2023-07-22T03:25:32;5.32;;;2.92;;
65358;SDS011;52491;45.900;6.346;2023-07-22T03:27:59;4.53;;;2.25;;
65358;SDS011;52491;45.900;6.346;2023-07-22T03:30:28;3.95;;;2.42;;
65358;SDS011;52491;45.900;6.346;2023-07-22T03:32:54;3.70;;;2.55;;
65358;SDS011;52491;45.900;6.346;2023-07-22T03:35:19;3.10;;;2.25;;
65358;SDS011;52491;45.900;6.346;2023-07-22T03:37:45;2.05;;;1.58;;
65358;SDS011;52491;45.900;6.346;2023-07-22T03:40:11;4.00;;;2.00;;
65358;SDS011;52491;45.900;6.346;2023-07-22T03:42:42;3.20;;;2.55;;
65358;SDS011;52491;45.900;6.346;2023-07-22T03:45:08;3.03;;;2.70;;
65358;SDS011;52491;45.900;6.346;2023-07-22T03:47:35;2.58;;;1.92;;
65358;SDS011;52491;45.900;6.346;2023-07-22T03:50:01;2.42;;;2.13;;
65358;SDS011;52491;45.900;6.346;2023-07-22T03:52:27;2.45;;;2.25;;
65358;SDS011;52491;45.900;6.346;2023-07-22T03:54:52;2.28;;;1.75;;
65358;SDS011;52491;45.900;6.346;2023-07-22T03:57:18;2.85;;;1.95;;
65358;SDS011;52491;45.900;6.346;2023-07-22T03:59:43;2.97;;;2.38;;
65358;SDS011;52491;45.900;6.346;2023-07-22T04:02:09;1.85;;;1.35;;
65358;SDS011;52491;45.900;6.346;2023-07-22T04:04:34;2.22;;;2.03;;
65358;SDS011;52491;45.900;6.346;2023-07-22T04:07:00;3.38;;;2.40;;
65358;SDS011;52491;45.900;6.346;2023-07-22T04:09:27;3.50;;;2.05;;
65358;SDS011;52491;45.900;6.346;2023-07-22T04:11:52;4.50;;;2.58;;
65358;SDS011;52491;45.900;6.346;2023-07-22T04:14:18;4.53;;;2.10;;
65358;SDS011;52491;45.900;6.346;2023-07-22T04:16:43;1.80;;;1.60;;
65358;SDS011;52491;45.900;6.346;2023-07-22T04:19:09;5.70;;;2.30;;
65358;SDS011;52491;45.900;6.346;2023-07-22T04:21:34;3.58;;;2.35;;
65358;SDS011;52491;45.900;6.346;2023-07-22T04:24:00;4.68;;;1.92;;
65358;SDS011;52491;45.900;6.346;2023-07-22T04:26:26;4.63;;;2.15;;
65358;SDS011;52491;45.900;6.346;2023-07-22T04:28:51;2.08;;;1.88;;
65358;SDS011;52491;45.900;6.346;2023-07-22T04:31:17;2.10;;;1.90;;
65358;SDS011;52491;45.900;6.346;2023-07-22T04:33:43;2.30;;;2.10;;
65358;SDS011;52491;45.900;6.346;2023-07-22T04:36:09;2.78;;;1.92;;
65358;SDS011;52491;45.900;6.346;2023-07-22T04:38:34;6.10;;;2.08;;
65358;SDS011;52491;45.900;6.346;2023-07-22T04:41:02;3.10;;;1.92;;
65358;SDS011;52491;45.900;6.346;2023-07-22T04:43:28;2.38;;;1.70;;
65358;SDS011;52491;45.900;6.346;2023-07-22T04:45:54;3.08;;;2.50;;
65358;SDS011;52491;45.900;6.346;2023-07-22T04:48:20;4.32;;;2.08;;
65358;SDS011;52491;45.900;6.346;2023-07-22T04:50:48;2.33;;;2.13;;
65358;SDS011;52491;45.900;6.346;2023-07-22T04:53:13;5.05;;;2.38;;
65358;SDS011;52491;45.900;6.346;2023-07-22T04:55:39;3.53;;;1.88;;
65358;SDS011;52491;45.900;6.346;2023-07-22T04:58:06;2.33;;;2.10;;
65358;SDS011;52491;45.900;6.346;2023-07-22T05:00:31;2.22;;;2.03;;
65358;SDS011;52491;45.900;6.346;2023-07-22T05:02:58;3.17;;;2.20;;
65358;SDS011;52491;45.900;6.346;2023-07-22T05:05:24;2.25;;;1.95;;
65358;SDS011;52491;45.900;6.346;2023-07-22T05:07:49;2.20;;;1.77;;
65358;SDS011;52491;45.900;6.346;2023-07-22T05:10:15;3.67;;;2.58;;
65358;SDS011;52491;45.900;6.346;2023-07-22T05:12:41;3.08;;;2.08;;
65358;SDS011;52491;45.900;6.346;2023-07-22T05:15:08;2.35;;;2.15;;
65358;SDS011;52491;45.900;6.346;2023-07-22T05:17:35;2.40;;;1.90;;
65358;SDS011;52491;45.900;6.346;2023-07-22T05:20:01;2.67;;;1.95;;
65358;SDS011;52491;45.900;6.346;2023-07-22T05:22:26;2.15;;;1.70;;
65358;SDS011;52491;45.900;6.346;2023-07-22T05:24:52;3.53;;;2.58;;
65358;SDS011;52491;45.900;6.346;2023-07-22T05:27:17;2.38;;;1.70;;
65358;SDS011;52491;45.900;6.346;2023-07-22T05:29:43;3.63;;;2.42;;
65358;SDS011;52491;45.900;6.346;2023-07-22T05:32:10;2.00;;;1.90;;
65358;SDS011;52491;45.900;6.346;2023-07-22T05:34:36;2.30;;;2.03;;
65358;SDS011;52491;45.900;6.346;2023-07-22T05:37:01;4.32;;;2.42;;
65358;SDS011;52491;45.900;6.346;2023-07-22T05:39:27;4.32;;;2.03;;
65358;SDS011;52491;45.900;6.346;2023-07-22T05:41:53;2.53;;;1.80;;
65358;SDS011;52491;45.900;6.346;2023-07-22T05:44:18;2.60;;;2.20;;
65358;SDS011;52491;45.900;6.346;2023-07-22T05:46:44;2.60;;;2.15;;
65358;SDS011;52491;45.900;6.346;2023-07-22T05:49:09;2.08;;;1.88;;
65358;SDS011;52491;45.900;6.346;2023-07-22T05:51:38;2.80;;;1.90;;
65358;SDS011;52491;45.900;6.346;2023-07-22T05:54:03;1.65;;;1.55;;
65358;SDS011;52491;45.900;6.346;2023-07-22T05:56:29;5.63;;;2.13;;
65358;SDS011;52491;45.900;6.346;2023-07-22T05:58:55;3.80;;;2.35;;
65358;SDS011;52491;45.900;6.346;2023-07-22T06:01:21;2.80;;;2.00;;
65358;SDS011;52491;45.900;6.346;2023-07-22T06:03:47;3.60;;;2.35;;
65358;SDS011;52491;45.900;6.346;2023-07-22T06:06:12;2.10;;;1.90;;
65358;SDS011;52491;45.900;6.346;2023-07-22T06:08:38;2.30;;;2.08;;
65358;SDS011;52491;45.900;6.346;2023-07-22T06:11:03;2.30;;;2.10;;
65358;SDS011;52491;45.900;6.346;2023-07-22T06:13:29;2.25;;;2.00;;
65358;SDS011;52491;45.900;6.346;2023-07-22T06:15:54;2.10;;;1.85;;
65358;SDS011;52491;45.900;6.346;2023-07-22T06:18:20;3.78;;;1.80;;
65358;SDS011;52491;45.900;6.346;2023-07-22T06:20:46;3.25;;;2.58;;
65358;SDS011;52491;45.900;6.346;2023-07-22T06:23:11;2.45;;;2.13;;
65358;SDS011;52491;45.900;6.346;2023-07-22T06:25:37;2.35;;;2.15;;
65358;SDS011;52491;45.900;6.346;2023-07-22T06:28:02;2.60;;;2.13;;
65358;SDS011;52491;45.900;6.346;2023-07-22T06:30:28;2.88;;;2.17;;
65358;SDS011;52491;45.900;6.346;2023-07-22T06:32:54;2.13;;;1.92;;
65358;SDS011;52491;45.900;6.346;2023-07-22T06:35:19;1.92;;;1.75;;
65358;SDS011;52491;45.900;6.346;2023-07-22T06:37:45;2.63;;;2.25;;
65358;SDS011;52491;45.900;6.346;2023-07-22T06:40:11;1.65;;;1.55;;
65358;SDS011;52491;45.900;6.346;2023-07-22T06:42:36;2.83;;;2.33;;
65358;SDS011;52491;45.900;6.346;2023-07-22T06:45:02;2.28;;;2.08;;
65358;SDS011;52491;45.900;6.346;2023-07-22T06:47:28;3.65;;;2.50;;
65358;SDS011;52491;45.900;6.346;2023-07-22T06:49:54;2.90;;;1.67;;
65358;SDS011;52491;45.900;6.346;2023-07-22T06:52:19;2.20;;;1.80;;
65358;SDS011;52491;45.900;6.346;2023-07-22T06:54:45;3.35;;;2.30;;
65358;SDS011;52491;45.900;6.346;2023-07-22T06:57:11;2.05;;;1.73;;
65358;SDS011;52491;45.900;6.346;2023-07-22T06:59:37;2.38;;;2.17;;
65358;SDS011;52491;45.900;6.346;2023-07-22T07:02:03;2.70;;;2.50;;
65358;SDS011;52491;45.900;6.346;2023-07-22T07:04:30;2.13;;;1.83;;
65358;SDS011;52491;45.900;6.346;2023-07-22T07:06:55;2.95;;;2.65;;
65358;SDS011;52491;45.900;6.346;2023-07-22T07:09:21;3.33;;;2.75;;
65358;SDS011;52491;45.900;6.346;2023-07-22T07:11:47;3.72;;;2.38;;
65358;SDS011;52491;45.900;6.346;2023-07-22T07:14:12;2.63;;;2.42;;
65358;SDS011;52491;45.900;6.346;2023-07-22T07:16:38;3.20;;;2.15;;
65358;SDS011;52491;45.900;6.346;2023-07-22T07:19:04;2.90;;;2.40;;
65358;SDS011;52491;45.900;6.346;2023-07-22T07:21:29;2.47;;;1.80;;
65358;SDS011;52491;45.900;6.346;2023-07-22T07:23:55;2.10;;;1.90;;
65358;SDS011;52491;45.900;6.346;2023-07-22T07:26:21;3.55;;;2.30;;
65358;SDS011;52491;45.900;6.346;2023-07-22T07:28:47;2.40;;;2.20;;
65358;SDS011;52491;45.900;6.346;2023-07-22T07:31:15;2.88;;;1.65;;
65358;SDS011;52491;45.900;6.346;2023-07-22T07:33:41;2.20;;;2.00;;
65358;SDS011;52491;45.900;6.346;2023-07-22T07:36:07;2.92;;;2.17;;
65358;SDS011;52491;45.900;6.346;2023-07-22T07:38:32;2.50;;;2.00;;
65358;SDS011;52491;45.900;6.346;2023-07-22T07:41:04;2.47;;;2.28;;
65358;SDS011;52491;45.900;6.346;2023-07-22T07:43:36;2.55;;;1.77;;
65358;SDS011;52491;45.900;6.346;2023-07-22T07:48:55;3.83;;;2.25;;
65358;SDS011;52491;45.900;6.346;2023-07-22T07:51:24;2.03;;;1.83;;
65358;SDS011;52491;45.900;6.346;2023-07-22T07:53:54;3.15;;;2.50;;
65358;SDS011;52491;45.900;6.346;2023-07-22T07:56:21;4.80;;;3.08;;
65358;SDS011;52491;45.900;6.346;2023-07-22T07:58:48;6.15;;;2.70;;
65358;SDS011;52491;45.900;6.346;2023-07-22T08:01:16;4.35;;;3.00;;
65358;SDS011;52491;45.900;6.346;2023-07-22T08:03:42;4.38;;;3.25;;
65358;SDS011;52491;45.900;6.346;2023-07-22T08:06:09;4.53;;;3.15;;
65358;SDS011;52491;45.900;6.346;2023-07-22T08:08:36;3.05;;;2.70;;
65358;SDS011;52491;45.900;6.346;2023-07-22T08:13:33;5.13;;;3.10;;
65358;SDS011;52491;45.900;6.346;2023-07-22T08:16:01;4.45;;;3.10;;
65358;SDS011;52491;45.900;6.346;2023-07-22T08:18:29;4.30;;;3.38;;
65358;SDS011;52491;45.900;6.346;2023-07-22T08:20:55;4.95;;;2.50;;
65358;SDS011;52491;45.900;6.346;2023-07-22T08:23:21;2.92;;;2.47;;
65358;SDS011;52491;45.900;6.346;2023-07-22T08:25:48;4.35;;;2.92;;
65358;SDS011;52491;45.900;6.346;2023-07-22T08:28:14;3.58;;;2.63;;
65358;SDS011;52491;45.900;6.346;2023-07-22T08:30:41;3.60;;;2.53;;
65358;SDS011;52491;45.900;6.346;2023-07-22T08:33:07;4.50;;;2.95;;
65358;SDS011;52491;45.900;6.346;2023-07-22T08:35:34;5.22;;;2.63;;
65358;SDS011;52491;45.900;6.346;2023-07-22T08:38:01;6.07;;;2.40;;
65358;SDS011;52491;45.900;6.346;2023-07-22T08:40:27;4.18;;;3.10;;
65358;SDS011;52491;45.900;6.346;2023-07-22T08:42:58;3.38;;;2.25;;
65358;SDS011;52491;45.900;6.346;2023-07-22T08:45:25;3.78;;;2.53;;
65358;SDS011;52491;45.900;6.346;2023-07-22T08:47:54;2.47;;;2.28;;
65358;SDS011;52491;45.900;6.346;2023-07-22T08:50:23;2.92;;;2.40;;
65358;SDS011;52491;45.900;6.346;2023-07-22T08:52:51;4.43;;;3.10;;
65358;SDS011;52491;45.900;6.346;2023-07-22T08:55:17;3.47;;;2.40;;
65358;SDS011;52491;45.900;6.346;2023-07-22T08:57:44;3.15;;;2.75;;
65358;SDS011;52491;45.900;6.346;2023-07-22T09:00:11;3.60;;;2.00;;
65358;SDS011;52491;45.900;6.346;2023-07-22T09:02:39;3.85;;;2.72;;
65358;SDS011;52491;45.900;6.346;2023-07-22T09:05:06;4.70;;;2.53;;
65358;SDS011;52491;45.900;6.346;2023-07-22T09:07:35;2.63;;;2.42;;
65358;SDS011;52491;45.900;6.346;2023-07-22T09:10:02;5.63;;;2.72;;
65358;SDS011;52491;45.900;6.346;2023-07-22T09:12:28;2.47;;;2.28;;
65358;SDS011;52491;45.900;6.346;2023-07-22T09:14:54;3.53;;;2.63;;
65358;SDS011;52491;45.900;6.346;2023-07-22T09:17:21;3.38;;;2.15;;
65358;SDS011;52491;45.900;6.346;2023-07-22T09:19:51;4.43;;;2.67;;
65358;SDS011;52491;45.900;6.346;2023-07-22T09:22:17;4.28;;;2.10;;
65358;SDS011;52491;45.900;6.346;2023-07-22T09:24:43;3.10;;;2.45;;
65358;SDS011;52491;45.900;6.346;2023-07-22T09:27:08;7.00;;;2.92;;
65358;SDS011;52491;45.900;6.346;2023-07-22T09:29:34;3.78;;;2.75;;
65358;SDS011;52491;45.900;6.346;2023-07-22T09:32:02;2.75;;;2.15;;
65358;SDS011;52491;45.900;6.346;2023-07-22T09:34:28;2.33;;;2.05;;
65358;SDS011;52491;45.900;6.346;2023-07-22T09:36:58;2.50;;;2.28;;
65358;SDS011;52491;45.900;6.346;2023-07-22T09:39:28;2.80;;;2.10;;
65358;SDS011;52491;45.900;6.346;2023-07-22T09:41:54;3.05;;;2.28;;
65358;SDS011;52491;45.900;6.346;2023-07-22T09:44:21;4.30;;;2.30;;
65358;SDS011;52491;45.900;6.346;2023-07-22T09:46:48;3.78;;;2.33;;
65358;SDS011;52491;45.900;6.346;2023-07-22T09:49:15;3.58;;;2.15;;
65358;SDS011;52491;45.900;6.346;2023-07-22T09:51:42;3.97;;;2.05;;
65358;SDS011;52491;45.900;6.346;2023-07-22T09:54:08;2.33;;;2.13;;
65358;SDS011;52491;45.900;6.346;2023-07-22T09:56:44;2.58;;;2.38;;
65358;SDS011;52491;45.900;6.346;2023-07-22T09:59:14;2.42;;;1.98;;
65358;SDS011;52491;45.900;6.346;2023-07-22T10:01:42;4.97;;;2.20;;
65358;SDS011;52491;45.900;6.346;2023-07-22T10:04:11;2.90;;;1.88;;
65358;SDS011;52491;45.900;6.346;2023-07-22T10:06:40;2.90;;;2.15;;
65358;SDS011;52491;45.900;6.346;2023-07-22T10:09:08;4.43;;;2.90;;
65358;SDS011;52491;45.900;6.346;2023-07-22T10:11:37;2.15;;;1.90;;
65358;SDS011;52491;45.900;6.346;2023-07-22T10:14:03;2.22;;;2.03;;
65358;SDS011;52491;45.900;6.346;2023-07-22T10:16:29;2.85;;;2.13;;
65358;SDS011;52491;45.900;6.346;2023-07-22T10:18:56;3.20;;;2.28;;
65358;SDS011;52491;45.900;6.346;2023-07-22T10:21:23;2.00;;;1.70;;
65358;SDS011;52491;45.900;6.346;2023-07-22T10:23:50;2.17;;;1.98;;
65358;SDS011;52491;45.900;6.346;2023-07-22T10:26:17;2.25;;;1.80;;
65358;SDS011;52491;45.900;6.346;2023-07-22T10:28:44;2.58;;;1.50;;
65358;SDS011;52491;45.900;6.346;2023-07-22T10:31:11;3.45;;;2.00;;
65358;SDS011;52491;45.900;6.346;2023-07-22T10:33:38;2.45;;;2.05;;
65358;SDS011;52491;45.900;6.346;2023-07-22T10:36:05;2.47;;;1.90;;
65358;SDS011;52491;45.900;6.346;2023-07-22T10:38:33;3.60;;;1.95;;
65358;SDS011;52491;45.900;6.346;2023-07-22T10:41:01;2.33;;;1.83;;
65358;SDS011;52491;45.900;6.346;2023-07-22T10:43:39;1.95;;;1.77;;
65358;SDS011;52491;45.900;6.346;2023-07-22T10:46:09;1.95;;;1.75;;
65358;SDS011;52491;45.900;6.346;2023-07-22T10:48:38;4.05;;;1.90;;
65358;SDS011;52491;45.900;6.346;2023-07-22T10:51:13;2.30;;;1.95;;
65358;SDS011;52491;45.900;6.346;2023-07-22T10:53:46;2.97;;;2.10;;
65358;SDS011;52491;45.900;6.346;2023-07-22T10:56:17;3.00;;;2.25;;
65358;SDS011;52491;45.900;6.346;2023-07-22T11:01:53;3.10;;;1.92;;
65358;SDS011;52491;45.900;6.346;2023-07-22T11:07:03;4.03;;;1.77;;
65358;SDS011;52491;45.900;6.346;2023-07-22T11:12:12;2.10;;;1.50;;
65358;SDS011;52491;45.900;6.346;2023-07-22T11:14:50;2.30;;;1.80;;
65358;SDS011;52491;45.900;6.346;2023-07-22T11:17:18;3.42;;;2.42;;
65358;SDS011;52491;45.900;6.346;2023-07-22T11:19:53;5.05;;;2.53;;
65358;SDS011;52491;45.900;6.346;2023-07-22T11:22:20;2.47;;;1.63;;
65358;SDS011;52491;45.900;6.346;2023-07-22T11:24:45;4.90;;;1.90;;
65358;SDS011;52491;45.900;6.346;2023-07-22T11:27:11;1.95;;;1.40;;
65358;SDS011;52491;45.900;6.346;2023-07-22T11:29:38;3.53;;;2.25;;
65358;SDS011;52491;45.900;6.346;2023-07-22T11:32:05;5.40;;;1.65;;
65358;SDS011;52491;45.900;6.346;2023-07-22T11:34:30;5.72;;;2.47;;
65358;SDS011;52491;45.900;6.346;2023-07-22T11:36:56;6.15;;;2.38;;
65358;SDS011;52491;45.900;6.346;2023-07-22T11:39:24;8.50;;;3.83;;
65358;SDS011;52491;45.900;6.346;2023-07-22T11:41:50;6.20;;;3.30;;
65358;SDS011;52491;45.900;6.346;2023-07-22T11:44:17;7.25;;;3.85;;
65358;SDS011;52491;45.900;6.346;2023-07-22T11:47:00;5.00;;;2.97;;
65358;SDS011;52491;45.900;6.346;2023-07-22T11:49:34;5.50;;;3.65;;
65358;SDS011;52491;45.900;6.346;2023-07-22T11:52:03;6.75;;;4.28;;
65358;SDS011;52491;45.900;6.346;2023-07-22T11:54:33;3.38;;;3.08;;
65358;SDS011;52491;45.900;6.346;2023-07-22T11:57:13;5.95;;;2.83;;
65358;SDS011;52491;45.900;6.346;2023-07-22T11:59:43;3.53;;;2.50;;
65358;SDS011;52491;45.900;6.346;2023-07-22T12:02:14;5.68;;;2.80;;
65358;SDS011;52491;45.900;6.346;2023-07-22T12:04:41;3.78;;;3.10;;
65358;SDS011;52491;45.900;6.346;2023-07-22T12:07:21;2.72;;;2.35;;
65358;SDS011;52491;45.900;6.346;2023-07-22T12:09:54;4.65;;;2.38;;
65358;SDS011;52491;45.900;6.346;2023-07-22T12:15:19;2.60;;;2.10;;
65358;SDS011;52491;45.900;6.346;2023-07-22T12:20:29;4.38;;;2.50;;
65358;SDS011;52491;45.900;6.346;2023-07-22T12:22:57;4.03;;;2.40;;
65358;SDS011;52491;45.900;6.346;2023-07-22T12:25:29;4.78;;;2.83;;
65358;SDS011;52491;45.900;6.346;2023-07-22T12:27:58;2.92;;;2.55;;
65358;SDS011;52491;45.900;6.346;2023-07-22T12:30:25;3.08;;;2.20;;
65358;SDS011;52491;45.900;6.346;2023-07-22T12:32:53;2.72;;;1.80;;
65358;SDS011;52491;45.900;6.346;2023-07-22T12:35:19;2.03;;;1.65;;
65358;SDS011;52491;45.900;6.346;2023-07-22T12:37:45;4.80;;;2.42;;
65358;SDS011;52491;45.900;6.346;2023-07-22T12:40:11;4.55;;;2.08;;
65358;SDS011;52491;45.900;6.346;2023-07-22T12:42:40;2.65;;;1.67;;
65358;SDS011;52491;45.900;6.346;2023-07-22T12:45:06;4.20;;;2.05;;
65358;SDS011;52491;45.900;6.346;2023-07-22T12:47:43;3.28;;;1.73;;
65358;SDS011;52491;45.900;6.346;2023-07-22T12:50:09;2.50;;;1.55;;
65358;SDS011;52491;45.900;6.346;2023-07-22T12:52:35;2.55;;;1.60;;
65358;SDS011;52491;45.900;6.346;2023-07-22T12:55:01;4.80;;;2.58;;
65358;SDS011;52491;45.900;6.346;2023-07-22T12:57:26;2.45;;;1.75;;
65358;SDS011;52491;45.900;6.346;2023-07-22T12:59:52;9.50;;;2.17;;
65358;SDS011;52491;45.900;6.346;2023-07-22T13:02:17;2.53;;;1.60;;
65358;SDS011;52491;45.900;6.346;2023-07-22T13:04:43;2.55;;;2.25;;
65358;SDS011;52491;45.900;6.346;2023-07-22T13:07:09;2.20;;;1.80;;
65358;SDS011;52491;45.900;6.346;2023-07-22T13:09:36;4.07;;;1.80;;
65358;SDS011;52491;45.900;6.346;2023-07-22T13:12:01;3.25;;;1.55;;
65358;SDS011;52491;45.900;6.346;2023-07-22T13:14:28;2.10;;;1.90;;
65358;SDS011;52491;45.900;6.346;2023-07-22T13:16:53;1.63;;;1.50;;
65358;SDS011;52491;45.900;6.346;2023-07-22T13:19:19;2.38;;;1.85;;
65358;SDS011;52491;45.900;6.346;2023-07-22T13:21:44;2.45;;;1.80;;
65358;SDS011;52491;45.900;6.346;2023-07-22T13:24:10;1.83;;;1.63;;
65358;SDS011;52491;45.900;6.346;2023-07-22T13:26:35;2.45;;;1.33;;
65358;SDS011;52491;45.900;6.346;2023-07-22T13:29:02;2.78;;;1.90;;
65358;SDS011;52491;45.900;6.346;2023-07-22T13:31:28;2.75;;;1.85;;
65358;SDS011;52491;45.900;6.346;2023-07-22T13:33:53;6.50;;;1.80;;
65358;SDS011;52491;45.900;6.346;2023-07-22T13:36:19;2.10;;;1.80;;
65358;SDS011;52491;45.900;6.346;2023-07-22T13:38:44;2.95;;;1.60;;
65358;SDS011;52491;45.900;6.346;2023-07-22T13:41:10;4.85;;;1.30;;
65358;SDS011;52491;45.900;6.346;2023-07-22T13:43:35;4.40;;;1.75;;
65358;SDS011;52491;45.900;6.346;2023-07-22T13:46:01;6.80;;;1.30;;
65358;SDS011;52491;45.900;6.346;2023-07-22T13:48:27;2.50;;;1.63;;
65358;SDS011;52491;45.900;6.346;2023-07-22T13:50:53;1.75;;;1.30;;
65358;SDS011;52491;45.900;6.346;2023-07-22T13:53:18;2.90;;;1.65;;
65358;SDS011;52491;45.900;6.346;2023-07-22T13:55:44;1.90;;;1.40;;
65358;SDS011;52491;45.900;6.346;2023-07-22T13:58:09;1.60;;;1.50;;
65358;SDS011;52491;45.900;6.346;2023-07-22T14:00:35;2.33;;;1.50;;
65358;SDS011;52491;45.900;6.346;2023-07-22T14:03:00;1.30;;;1.17;;
65358;SDS011;52491;45.900;6.346;2023-07-22T14:05:26;2.72;;;1.45;;
65358;SDS011;52491;45.900;6.346;2023-07-22T14:07:51;2.92;;;1.58;;
65358;SDS011;52491;45.900;6.346;2023-07-22T14:10:17;2.13;;;1.30;;
65358;SDS011;52491;45.900;6.346;2023-07-22T14:12:43;1.67;;;1.42;;
65358;SDS011;52491;45.900;6.346;2023-07-22T14:15:08;1.85;;;1.27;;
65358;SDS011;52491;45.900;6.346;2023-07-22T14:17:35;2.17;;;1.50;;
65358;SDS011;52491;45.900;6.346;2023-07-22T14:20:03;1.63;;;1.27;;
65358;SDS011;52491;45.900;6.346;2023-07-22T14:22:30;1.58;;;1.42;;
65358;SDS011;52491;45.900;6.346;2023-07-22T14:24:56;2.88;;;1.65;;
65358;SDS011;52491;45.900;6.346;2023-07-22T14:27:21;2.25;;;1.10;;
65358;SDS011;52491;45.900;6.346;2023-07-22T14:29:47;1.85;;;1.65;;
65358;SDS011;52491;45.900;6.346;2023-07-22T14:32:12;1.30;;;1.20;;
65358;SDS011;52491;45.900;6.346;2023-07-22T14:34:41;2.50;;;1.67;;
65358;SDS011;52491;45.900;6.346;2023-07-22T14:37:06;1.63;;;1.52;;
65358;SDS011;52491;45.900;6.346;2023-07-22T14:39:32;3.85;;;1.23;;
65358;SDS011;52491;45.900;6.346;2023-07-22T14:41:58;1.52;;;1.23;;
65358;SDS011;52491;45.900;6.346;2023-07-22T14:44:23;1.42;;;0.98;;
65358;SDS011;52491;45.900;6.346;2023-07-22T14:46:49;2.75;;;1.25;;
65358;SDS011;52491;45.900;6.346;2023-07-22T14:49:15;1.30;;;1.17;;
65358;SDS011;52491;45.900;6.346;2023-07-22T14:51:40;2.30;;;1.30;;
65358;SDS011;52491;45.900;6.346;2023-07-22T14:54:06;1.85;;;1.20;;
65358;SDS011;52491;45.900;6.346;2023-07-22T14:56:32;1.48;;;1.30;;
65358;SDS011;52491;45.900;6.346;2023-07-22T14:58:57;1.92;;;1.63;;
65358;SDS011;52491;45.900;6.346;2023-07-22T15:01:23;2.53;;;1.45;;
65358;SDS011;52491;45.900;6.346;2023-07-22T15:03:48;1.63;;;1.52;;